ADDS TAF Board (Experimental) INFO Settings
IDs: Format: Expanded Condensed

KSTL - St Louis/Lambert Int, MO, US

Issued at 1452 UTC 22 May 2015
Updated at: 1603 UTC 22 May 2015
Time1551Z 22/17Z 22/18Z 22/19Z 22/20Z 22/21Z 22/22Z 22/23Z 23/00Z 23/01Z 23/02Z 23/03Z 23/04Z 23/05Z
Type OBS PRVL PRVL PRVL PRVL PRVL PRVL PRVL PRVL PRVL PRVL PRVL PRVL PRVL
VIS 10 >6 >6 >6 >6 >6 >6 >6 >6 >6 >6 >6 >6 >6
CIG -- 250 250 250 250 250 250 250 120 120 120 120 120 120
Cover SCT BKN BKN BKN BKN BKN BKN BKN BKN BKN BKN BKN BKN BKN
FltCat VFR VFR VFR VFR VFR VFR VFR VFR VFR VFR VFR VFR VFR VFR
WX -- -- -- -- -- -- -- -- -- -- -- -- -- --
WDir VRB 260 260 260 260 260 260 260 VRB VRB VRB VRB VRB VRB
WSpd 5 8 8 8 8 8 8 8 4 4 4 4 4 4
WGst -- -- -- -- -- -- -- -- -- -- -- -- -- --
R06/24
XWnd VRB 2 2 2 2 2 2 2 VRB VRB VRB VRB VRB VRB
HWnd VRB -8 -8 -8 -8 -8 -8 -8 VRB VRB VRB VRB VRB VRB
R11/29
XWnd VRB -5 -5 -5 -5 -5 -5 -5 VRB VRB VRB VRB VRB VRB
HWnd VRB -6 -6 -6 -6 -6 -6 -6 VRB VRB VRB VRB VRB VRB
R12/30
XWnd VRB -5 -5 -5 -5 -5 -5 -5 VRB VRB VRB VRB VRB VRB
HWnd VRB -6 -6 -6 -6 -6 -6 -6 VRB VRB VRB VRB VRB VRB

NOTE: TEMPO conditions in [brackets]. Keep in mind TEMPO conditions might be better (lower impact) than prevailing conditions.

Raw TAF
KSTL 221452Z 2215/2318 26008KT P6SM BKN250
  FM230000 VRB04KT P6SM BKN120
  FM230600 VRB03KT P6SM BKN080


Raw METAR
KSTL 221551Z VRB05KT 10SM SCT250 21/10 A3026 RMK AO2 SLP241 T02110100
KSTL 221451Z 26006KT 10SM SCT250 19/09 A3025 RMK AO2 SLP240 T01940094 51008
KSTL 221351Z 25008KT 10SM FEW250 17/08 A3025 RMK AO2 SLP238 T01720083

METAR Board
Radar Display
Forecast Discussion

TAF Board Legend

Potential Impact
Threat None Slight Moderate High
Visibility (sm) ≥5.1 5.1>X≥3 3>X≥1 <1
Ceiling (100 ft) ≥30.1 30.1>X≥10 10>X≥5 <5
Wind Speed (kt) <10 10≤X<20 20≤X<30 ≥30
Wind Gust (kt) <15 15≤X<25 25≤X<35 ≥35
Weather No Wx Reported VCTS,-TS,-FZRA,SN TS,FZRA +TS,+FZRA,+SN